Weather forecast for Torococo

Venezuela, 552 m
N9.592, E-70.400


Sounding

Red line — air temperature ˚C.
Blue line — thermal bubble temperature ˚C.
Green line — dew point temperature ˚C.
Wind speed is in meters per second.

Table forecast

GFS 0.25˚ model

temp. wind gust humid. clouds prec. press. hpbl
Mon17 00:00 22 122.0 ese 2 2 80 0 0.0 1015 44
03:00 22 109.0 ese 2 2 75 24 0.0 1013 46
06:00 22 104.0 ese 1 2 74 53 0.0 1013 62
09:00 24 87.0 e 1 2 75 72 0.2 1014 144
12:00 27 349.0 n 1 1 64 100 0.0 1015 440
15:00 30 301.0 wnw 2 2 54 97 0.0 1012 917
18:00 29 281.0 w 2 2 62 66 0.0 1011 725
21:00 24 135.0 se 1 2 83 71 0.9 1013 53
 
Tue18 00:00 23 114.0 ese 1 2 78 100 0.0 1015 56
03:00 23 98.0 e 1 1 78 100 0.0 1013 39
06:00 22 81.0 e 1 2 77 100 0.0 1013 47
09:00 24 65.0 ene 0 1 74 99 0.0 1014 131
12:00 29 313.0 nw 2 2 59 27 0.0 1014 853
15:00 30 291.0 wnw 3 2 60 16 0.6 1012 1084
18:00 27 262.0 w 2 3 81 76 4.9 1010 438
21:00 24 128.0 se 1 2 89 88 5.8 1011 35
 
Wed19 00:00 22 124.0 se 2 2 84 89 0.0 1014 54
03:00 22 101.0 e 1 1 81 88 0.0 1013 47
06:00 22 115.0 ese 1 2 78 30 0.0 1012 53
09:00 24 55.0 ne 0 1 74 65 0.0 1014 106
12:00 29 306.0 nw 2 2 59 89 0.0 1014 754
15:00 31 294.0 wnw 2 1 57 52 0.7 1011 1101
18:00 27 255.0 wsw 2 3 82 78 4.6 1009 415
21:00 23 137.0 se 2 2 89 89 8.4 1011 45
 
Thu20 00:00 22 120.0 ese 2 2 87 93 0.1 1013 50
03:00 23 115.0 ese 1 2 82 97 0.1 1012 57
06:00 22 114.0 ese 1 1 79 98 0.0 1012 55
09:00 24 109.0 ese 0 1 77 99 0.0 1013 117
12:00 29 344.0 nnw 1 2 57 100 0.0 1015 856
15:00 28 216.0 sw 2 3 67 99 0.4 1013 558
18:00 27 312.0 nw 1 2 72 100 0.3 1011 529
21:00 24 129.0 se 1 1 81 100 0.4 1013 54
 
Fri21 00:00 23 120.0 ese 2 2 68 100 0.0 1015 68
03:00 22 115.0 ese 2 3 67 98 0.0 1014 73
06:00 22 110.0 ese 2 2 66 97 0.0 1013 93
09:00 24 107.0 ese 1 2 70 98 0.1 1015 130
12:00 28 104.0 ese 1 3 58 94 0.1 1016 731
15:00 32 114.0 ese 2 4 46 94 0.1 1013 1436
18:00 30 151.0 sse 1 3 51 12 0.0 1011 1064
21:00 24 127.0 se 2 2 69 28 0.0 1013 74
 

0.010 s